createdAt,value
2017-08-21T00:00:03.874Z,0.00
2017-08-21T00:01:04.286Z,0.00
2017-08-21T00:02:04.722Z,0.00
2017-08-21T00:03:57.932Z,0.00
2017-08-21T00:04:58.375Z,0.00
2017-08-21T00:05:58.801Z,0.00
2017-08-21T00:06:59.240Z,0.00
2017-08-21T00:07:59.669Z,0.00
2017-08-21T00:09:00.100Z,0.00
2017-08-21T00:10:00.540Z,0.00
2017-08-21T00:11:54.740Z,0.00
2017-08-21T00:12:55.184Z,0.00
2017-08-21T00:13:55.622Z,0.00
2017-08-21T00:15:48.820Z,0.00
2017-08-21T00:16:49.263Z,0.00
2017-08-21T00:17:49.694Z,0.00
2017-08-21T00:18:50.131Z,0.00
2017-08-21T00:19:50.565Z,0.00
2017-08-21T00:21:43.764Z,0.00
2017-08-21T00:22:44.204Z,0.00
2017-08-21T00:23:44.640Z,0.00
2017-08-21T00:24:45.074Z,0.00
2017-08-21T00:25:45.506Z,0.00
2017-08-21T00:26:45.943Z,0.00
2017-08-21T00:27:46.374Z,0.00
2017-08-21T00:29:39.577Z,0.00
2017-08-21T00:31:32.814Z,0.00
2017-08-21T00:32:33.242Z,0.00
2017-08-21T00:33:33.678Z,0.00
2017-08-21T00:34:34.105Z,0.00
2017-08-21T00:36:27.311Z,0.00
2017-08-21T00:37:27.746Z,0.00
2017-08-21T00:39:20.976Z,0.00
2017-08-21T00:40:21.411Z,0.00
2017-08-21T00:41:21.834Z,0.00
2017-08-21T00:43:15.055Z,0.00
2017-08-21T00:44:15.484Z,0.00
2017-08-21T00:45:15.913Z,0.00
2017-08-21T00:46:16.349Z,0.00
2017-08-21T00:48:10.099Z,0.00
2017-08-21T00:50:03.288Z,0.00
2017-08-21T00:51:03.713Z,0.00
2017-08-21T00:52:04.159Z,0.00
2017-08-21T00:53:04.585Z,0.00
2017-08-21T00:54:57.791Z,0.00
2017-08-21T00:55:58.235Z,0.00
2017-08-21T00:56:58.675Z,0.00
2017-08-21T00:58:52.881Z,0.00
2017-08-21T00:59:53.304Z,0.00
2017-08-21T01:00:53.740Z,0.00
2017-08-21T01:01:54.179Z,0.00
2017-08-21T01:02:54.600Z,0.00
2017-08-21T01:03:55.033Z,0.00
2017-08-21T01:04:55.474Z,0.00
2017-08-21T01:06:48.682Z,0.00
2017-08-21T01:07:49.128Z,0.00
2017-08-21T01:08:49.556Z,0.00
2017-08-21T01:09:49.985Z,0.00
2017-08-21T01:10:50.425Z,0.00
2017-08-21T01:12:43.659Z,0.00
2017-08-21T01:13:44.086Z,0.00
2017-08-21T01:14:44.519Z,0.00
2017-08-21T01:16:37.725Z,0.00
2017-08-21T01:18:30.941Z,0.00
2017-08-21T01:20:24.153Z,0.00
2017-08-21T01:21:24.593Z,0.00
2017-08-21T01:22:25.030Z,0.00
2017-08-21T01:23:25.458Z,0.00
2017-08-21T01:24:25.890Z,0.00
2017-08-21T01:26:19.091Z,0.00
2017-08-21T01:28:13.293Z,0.00
2017-08-21T01:29:13.730Z,0.00
2017-08-21T01:30:14.162Z,0.00
2017-08-21T01:31:14.597Z,0.00
2017-08-21T01:32:15.029Z,0.00
2017-08-21T01:34:08.239Z,0.00
2017-08-21T01:35:08.681Z,0.00
2017-08-21T01:36:09.113Z,0.00
2017-08-21T01:37:09.547Z,0.00
2017-08-21T01:38:09.977Z,0.00
2017-08-21T01:39:10.412Z,0.00
2017-08-21T01:40:10.842Z,0.00
2017-08-21T01:42:04.044Z,0.00
2017-08-21T01:43:57.264Z,0.00
2017-08-21T01:44:57.772Z,0.00
2017-08-21T01:45:58.150Z,0.00
2017-08-21T01:46:58.566Z,0.00
2017-08-21T01:47:58.993Z,0.00
2017-08-21T01:49:52.203Z,0.00
2017-08-21T01:50:52.723Z,0.00
2017-08-21T01:51:53.072Z,0.00
2017-08-21T01:52:53.516Z,0.00
2017-08-21T01:53:53.941Z,0.00
2017-08-21T01:55:47.159Z,0.00
2017-08-21T01:56:47.587Z,0.00
2017-08-21T01:57:48.021Z,0.00
2017-08-21T01:58:48.449Z,0.00
2017-08-21T01:59:48.881Z,0.00
2017-08-21T02:00:49.312Z,0.00
2017-08-21T02:01:49.747Z,0.00
2017-08-21T02:02:50.176Z,0.00
2017-08-21T02:03:50.608Z,0.00
2017-08-21T02:05:43.835Z,0.00
2017-08-21T02:06:44.279Z,0.00
2017-08-21T02:07:44.692Z,0.00
2017-08-21T02:08:45.129Z,0.00
2017-08-21T02:10:38.341Z,0.00
2017-08-21T02:11:38.785Z,0.00
2017-08-21T02:12:39.218Z,0.00
2017-08-21T02:13:39.650Z,0.00
2017-08-21T02:15:33.841Z,0.00
2017-08-21T02:16:34.295Z,0.00
2017-08-21T02:17:34.723Z,0.00
2017-08-21T02:19:27.930Z,0.00
2017-08-21T02:20:28.382Z,0.00
2017-08-21T02:21:28.807Z,0.00
2017-08-21T02:23:22.016Z,0.00
2017-08-21T02:24:22.467Z,0.00
2017-08-21T02:25:22.893Z,0.00
2017-08-21T02:26:23.322Z,0.00
2017-08-21T02:27:23.760Z,0.00
2017-08-21T02:29:16.983Z,0.00
2017-08-21T02:30:17.426Z,0.00
2017-08-21T02:32:10.652Z,0.00
2017-08-21T02:33:11.076Z,0.00
2017-08-21T02:34:11.509Z,0.00
2017-08-21T02:35:11.945Z,0.00
2017-08-21T02:36:12.372Z,0.00
2017-08-21T02:38:05.581Z,0.00
2017-08-21T02:39:06.021Z,0.00
2017-08-21T02:40:06.452Z,0.00
2017-08-21T02:41:06.892Z,0.00
2017-08-21T02:43:00.109Z,0.00
2017-08-21T02:44:00.544Z,0.00
2017-08-21T02:45:00.975Z,0.00
2017-08-21T02:46:01.413Z,0.00
2017-08-21T02:47:55.601Z,0.00
2017-08-21T02:48:56.035Z,0.00
2017-08-21T02:49:56.471Z,0.00
2017-08-21T02:50:56.906Z,0.00
2017-08-21T02:51:57.339Z,0.00
2017-08-21T02:53:50.545Z,0.00
2017-08-21T02:54:50.988Z,0.00
2017-08-21T02:55:51.422Z,0.00
2017-08-21T02:56:51.850Z,0.00
2017-08-21T02:57:52.284Z,0.00
2017-08-21T02:58:52.719Z,0.00
2017-08-21T03:00:45.925Z,0.00
2017-08-21T03:01:46.369Z,0.00
2017-08-21T03:02:46.799Z,0.00
2017-08-21T03:03:47.229Z,0.00
2017-08-21T03:04:47.662Z,0.00
2017-08-21T03:05:48.094Z,0.00
2017-08-21T03:06:48.530Z,0.00
2017-08-21T03:08:41.740Z,0.00
2017-08-21T03:10:34.944Z,0.00
2017-08-21T03:11:35.383Z,0.00
2017-08-21T03:12:35.818Z,0.00
2017-08-21T03:13:36.249Z,0.00
2017-08-21T03:14:36.678Z,0.00
2017-08-21T03:16:29.893Z,0.00
2017-08-21T03:17:30.331Z,0.00
2017-08-21T03:18:30.769Z,0.00
2017-08-21T03:19:31.200Z,0.00
2017-08-21T03:20:31.633Z,0.00
2017-08-21T03:21:32.068Z,0.00
2017-08-21T03:22:32.496Z,0.00
2017-08-21T03:23:32.937Z,0.00
2017-08-21T03:25:26.138Z,0.00
2017-08-21T03:27:19.357Z,4.00
2017-08-21T03:28:19.789Z,4.00
2017-08-21T03:29:20.225Z,4.00
2017-08-21T03:30:20.661Z,4.00
2017-08-21T03:32:13.868Z,4.00
2017-08-21T03:33:14.317Z,4.00
2017-08-21T03:34:14.747Z,4.00
2017-08-21T03:36:07.958Z,4.00
2017-08-21T03:37:08.399Z,8.00
2017-08-21T03:38:08.833Z,8.00
2017-08-21T03:39:09.262Z,8.00
2017-08-21T03:40:09.692Z,8.00
2017-08-21T03:41:10.134Z,12.00
2017-08-21T03:42:10.560Z,12.00
2017-08-21T03:44:03.775Z,16.00
2017-08-21T03:45:04.218Z,12.00
2017-08-21T03:46:04.653Z,16.00
2017-08-21T03:47:57.867Z,20.00
2017-08-21T03:48:58.312Z,24.00
2017-08-21T03:49:58.733Z,28.00
2017-08-21T03:50:59.162Z,32.00
2017-08-21T03:52:52.369Z,40.00
2017-08-21T03:54:45.582Z,56.00
2017-08-21T03:55:46.030Z,64.00
2017-08-21T03:56:46.458Z,72.00
2017-08-21T03:57:46.897Z,72.00
2017-08-21T03:59:40.106Z,80.00
2017-08-21T04:00:40.538Z,92.00
2017-08-21T04:01:40.973Z,108.00
2017-08-21T04:02:41.408Z,136.00
2017-08-21T04:03:41.836Z,132.00
2017-08-21T04:05:35.043Z,132.00
2017-08-21T04:06:35.486Z,152.00
2017-08-21T04:07:35.916Z,156.00
2017-08-21T04:08:36.347Z,148.00
2017-08-21T04:09:36.784Z,160.00
2017-08-21T04:10:37.217Z,192.00
2017-08-21T04:11:37.649Z,188.00
2017-08-21T04:13:30.855Z,228.00
2017-08-21T04:14:31.302Z,228.00
2017-08-21T04:15:31.732Z,264.00
2017-08-21T04:16:32.166Z,292.00
2017-08-21T04:17:32.599Z,284.00
2017-08-21T04:19:25.806Z,264.00
2017-08-21T04:20:26.242Z,256.00
2017-08-21T04:21:26.702Z,244.00
2017-08-21T04:22:27.112Z,240.00
2017-08-21T04:23:27.549Z,288.00
2017-08-21T04:25:20.768Z,276.00
2017-08-21T04:26:21.190Z,280.00
2017-08-21T04:27:21.624Z,308.00
2017-08-21T04:28:22.050Z,324.00
2017-08-21T04:30:15.282Z,332.00
2017-08-21T04:31:15.711Z,304.00
2017-08-21T04:32:16.145Z,320.00
2017-08-21T04:34:10.333Z,228.00
2017-08-21T04:35:10.770Z,256.00
2017-08-21T04:36:11.210Z,320.00
2017-08-21T04:37:11.641Z,364.00
2017-08-21T04:38:12.073Z,312.00
2017-08-21T04:39:12.503Z,304.00
2017-08-21T04:41:05.727Z,328.00
2017-08-21T04:42:06.161Z,364.00
2017-08-21T04:43:06.590Z,400.00
2017-08-21T04:44:07.031Z,388.00
2017-08-21T04:46:01.219Z,352.00
2017-08-21T04:47:54.428Z,516.00
2017-08-21T04:49:47.713Z,480.00
2017-08-21T04:50:48.148Z,696.00
2017-08-21T04:51:48.578Z,568.00
2017-08-21T04:52:49.017Z,620.00
2017-08-21T04:53:49.451Z,576.00
2017-08-21T04:54:49.882Z,644.00
2017-08-21T04:55:50.317Z,896.00
2017-08-21T04:56:50.752Z,816.00
2017-08-21T04:57:51.182Z,856.00
2017-08-21T04:58:51.615Z,808.00
2017-08-21T04:59:52.049Z,620.00
2017-08-21T05:00:52.475Z,692.00
2017-08-21T05:01:52.921Z,692.00
2017-08-21T05:03:46.114Z,656.00
2017-08-21T05:05:39.342Z,1068.00
2017-08-21T05:06:39.773Z,1128.00
2017-08-21T05:07:40.204Z,1584.00
2017-08-21T05:08:40.633Z,1308.00
2017-08-21T05:09:41.066Z,1268.00
2017-08-21T05:10:41.501Z,1936.00
2017-08-21T05:11:41.930Z,1736.00
2017-08-21T05:12:42.367Z,1456.00
2017-08-21T05:13:42.798Z,1464.00
2017-08-21T05:15:36.002Z,1740.00
2017-08-21T05:16:36.445Z,1548.00
2017-08-21T05:17:36.900Z,2052.00
2017-08-21T05:18:37.314Z,1844.00
2017-08-21T05:20:30.525Z,1760.00
2017-08-21T05:21:30.966Z,1848.00
2017-08-21T05:22:31.396Z,1456.00
2017-08-21T05:23:31.826Z,1756.00
2017-08-21T05:24:32.260Z,1812.00
2017-08-21T05:25:32.694Z,1936.00
2017-08-21T05:26:33.129Z,1680.00
2017-08-21T05:27:33.563Z,1808.00
2017-08-21T05:28:33.993Z,2240.00
2017-08-21T05:29:34.432Z,2008.00
2017-08-21T05:30:34.864Z,2024.00
2017-08-21T05:31:35.299Z,1604.00
2017-08-21T05:32:35.731Z,1404.00
2017-08-21T05:33:36.161Z,1228.00
2017-08-21T05:35:29.420Z,1256.00
2017-08-21T05:36:29.824Z,1456.00
2017-08-21T05:37:30.260Z,1536.00
2017-08-21T05:39:23.518Z,1460.00
2017-08-21T05:40:23.923Z,1380.00
2017-08-21T05:41:24.355Z,1120.00
2017-08-21T05:42:24.782Z,1192.00
2017-08-21T05:43:25.219Z,1200.00
2017-08-21T05:45:18.433Z,1156.00
2017-08-21T05:46:18.867Z,1236.00
2017-08-21T05:47:19.301Z,1156.00
2017-08-21T05:48:19.741Z,808.00
2017-08-21T05:49:20.166Z,680.00
2017-08-21T05:50:20.609Z,592.00
2017-08-21T05:52:14.810Z,668.00
2017-08-21T05:53:15.253Z,740.00
2017-08-21T05:54:15.683Z,896.00
2017-08-21T05:55:16.109Z,1016.00
2017-08-21T05:56:16.543Z,1508.00
2017-08-21T05:57:16.975Z,1696.00
2017-08-21T05:58:17.416Z,1752.00
2017-08-21T06:00:10.623Z,2592.00
2017-08-21T06:01:11.068Z,3272.00
2017-08-21T06:02:11.499Z,2484.00
2017-08-21T06:03:11.933Z,2436.00
2017-08-21T06:04:12.371Z,2192.00
2017-08-21T06:05:12.803Z,2728.00
2017-08-21T06:07:06.011Z,2308.00
2017-08-21T06:08:06.444Z,3612.00
2017-08-21T06:09:06.878Z,2972.00
2017-08-21T06:10:07.315Z,2644.00
2017-08-21T06:11:07.746Z,2200.00
2017-08-21T06:12:08.180Z,2952.00
2017-08-21T06:14:01.391Z,3532.00
2017-08-21T06:15:01.836Z,2364.00
2017-08-21T06:16:02.266Z,4076.00
2017-08-21T06:17:02.701Z,3796.00
2017-08-21T06:18:03.133Z,3004.00
2017-08-21T06:19:03.569Z,3504.00
2017-08-21T06:20:04.007Z,3388.00
2017-08-21T06:21:04.441Z,3268.00
2017-08-21T06:22:57.667Z,4404.00
2017-08-21T06:23:58.097Z,3500.00
2017-08-21T06:25:52.288Z,3640.00
2017-08-21T06:26:52.735Z,4836.00
2017-08-21T06:27:53.169Z,3556.00
2017-08-21T06:28:53.602Z,3928.00
2017-08-21T06:30:46.817Z,4604.00
2017-08-21T06:31:47.267Z,5840.00
2017-08-21T06:32:47.690Z,6748.00
2017-08-21T06:33:48.134Z,4144.00
2017-08-21T06:34:48.557Z,4940.00
2017-08-21T06:35:49.010Z,4420.00
2017-08-21T06:37:43.186Z,3612.00
2017-08-21T06:39:36.418Z,4604.00
2017-08-21T06:40:36.859Z,5916.00
2017-08-21T06:41:37.293Z,4040.00
2017-08-21T06:42:37.717Z,4032.00
2017-08-21T06:43:38.166Z,4064.00
2017-08-21T06:44:38.588Z,3120.00
2017-08-21T06:46:31.797Z,4620.00
2017-08-21T06:47:32.241Z,3608.00
2017-08-21T06:48:32.677Z,3332.00
2017-08-21T06:49:33.108Z,3516.00
2017-08-21T06:51:26.321Z,3752.00
2017-08-21T06:52:26.764Z,3696.00
2017-08-21T06:53:27.197Z,3992.00
2017-08-21T06:54:27.632Z,3732.00
2017-08-21T06:55:28.071Z,8088.00
2017-08-21T06:57:21.272Z,5524.00
2017-08-21T06:59:14.491Z,5220.00
2017-08-21T07:00:14.954Z,7016.00
2017-08-21T07:01:15.363Z,8248.00
2017-08-21T07:02:15.803Z,4784.00
2017-08-21T07:03:16.234Z,8536.00
2017-08-21T07:04:16.669Z,12676.00
2017-08-21T07:06:09.885Z,10344.00
2017-08-21T07:07:10.329Z,7148.00
2017-08-21T07:08:10.762Z,8700.00
2017-08-21T07:09:39.143Z,7812.00
2017-08-21T07:12:19.667Z,8476.00
2017-08-21T07:13:08.165Z,4608.00
2017-08-21T07:14:05.738Z,5788.00
2017-08-21T07:15:58.940Z,3812.00
2017-08-21T07:16:59.385Z,3208.00
2017-08-21T07:17:59.817Z,7144.00
2017-08-21T07:19:00.255Z,6920.00
2017-08-21T07:20:00.700Z,6184.00
2017-08-21T07:21:01.127Z,6512.00
2017-08-21T07:22:54.345Z,7176.00
2017-08-21T07:23:54.814Z,6028.00
2017-08-21T07:24:55.256Z,8408.00
2017-08-21T07:28:40.450Z,7316.00
2017-08-21T07:29:44.430Z,6780.00
2017-08-21T07:30:44.943Z,7040.00
2017-08-21T07:31:30.497Z,7984.00
2017-08-21T07:33:23.725Z,8768.00
2017-08-21T07:34:24.169Z,5848.00
2017-08-21T07:36:17.399Z,7216.00
2017-08-21T07:37:17.838Z,7140.00
2017-08-21T07:38:18.273Z,10888.00
2017-08-21T07:39:18.718Z,7208.00
2017-08-21T07:40:19.149Z,6564.00
2017-08-21T07:41:19.586Z,8880.00
2017-08-21T07:43:12.802Z,4748.00
2017-08-21T07:44:13.249Z,9708.00
2017-08-21T07:45:13.680Z,8152.00
2017-08-21T07:46:14.118Z,4892.00
2017-08-21T07:48:07.440Z,6624.00
2017-08-21T07:49:07.775Z,7104.00
2017-08-21T07:50:08.226Z,6420.00
2017-08-21T07:52:01.433Z,4504.00
2017-08-21T07:53:01.876Z,4536.00
2017-08-21T07:54:02.312Z,5884.00
2017-08-21T07:55:02.747Z,13220.00
2017-08-21T07:56:03.182Z,11500.00
2017-08-21T07:57:56.413Z,11472.00
2017-08-21T07:58:56.845Z,6892.00
2017-08-21T07:59:57.282Z,6892.00
2017-08-21T08:00:57.724Z,10660.00
2017-08-21T08:02:51.955Z,65344.00
2017-08-21T08:03:52.378Z,29600.00
2017-08-21T08:04:52.824Z,21504.00
2017-08-21T08:05:53.256Z,14308.00
2017-08-21T08:07:47.509Z,21120.00
2017-08-21T08:08:47.918Z,13796.00
2017-08-21T08:09:48.374Z,10660.00
2017-08-21T08:11:41.594Z,12240.00
2017-08-21T08:12:42.041Z,8660.00
2017-08-21T08:13:42.485Z,11756.00
2017-08-21T08:15:36.690Z,16640.00
2017-08-21T08:17:29.918Z,7872.00
2017-08-21T08:18:30.367Z,8780.00
2017-08-21T08:19:30.812Z,7620.00
2017-08-21T08:20:31.247Z,12132.00
2017-08-21T08:21:31.689Z,12736.00
2017-08-21T08:23:24.933Z,9492.00
2017-08-21T08:24:25.381Z,12604.00
2017-08-21T08:25:25.819Z,6460.00
2017-08-21T08:27:19.114Z,10272.00
2017-08-21T08:28:19.562Z,9492.00
2017-08-21T08:29:20.003Z,8556.00
2017-08-21T08:30:20.446Z,5804.00
2017-08-21T08:32:13.673Z,8484.00
2017-08-21T08:33:14.131Z,6636.00
2017-08-21T08:34:14.565Z,7932.00
2017-08-21T08:36:07.786Z,12224.00
2017-08-21T08:37:08.226Z,8756.00
2017-08-21T08:38:08.666Z,14380.00
2017-08-21T08:39:09.100Z,18304.00
2017-08-21T08:41:02.332Z,8108.00
2017-08-21T08:42:02.775Z,11964.00
2017-08-21T08:43:03.230Z,14964.00
2017-08-21T08:44:03.652Z,14600.00
2017-08-21T08:45:04.110Z,78496.00
2017-08-21T08:46:57.316Z,22048.00
2017-08-21T08:47:57.761Z,41824.00
2017-08-21T08:48:58.203Z,14112.00
2017-08-21T08:49:58.636Z,18880.00
2017-08-21T08:50:59.113Z,16204.00
2017-08-21T08:53:00.070Z,26240.00
2017-08-21T08:53:52.768Z,11520.00
2017-08-21T08:55:45.989Z,14120.00
2017-08-21T08:57:39.231Z,26592.00
2017-08-21T08:58:39.680Z,47296.00
2017-08-21T09:01:14.243Z,15976.00
2017-08-21T09:03:07.495Z,18688.00
2017-08-21T09:04:07.941Z,17920.00
2017-08-21T09:05:08.384Z,9172.00
2017-08-21T09:06:08.827Z,6108.00
2017-08-21T09:07:09.270Z,7960.00
2017-08-21T09:08:09.712Z,11844.00
2017-08-21T09:09:10.170Z,14352.00
2017-08-21T09:10:10.601Z,18496.00
2017-08-21T09:11:11.046Z,75328.00
2017-08-21T09:12:11.495Z,63456.00
2017-08-21T09:13:11.935Z,23520.00
2017-08-21T09:14:12.376Z,15112.00
2017-08-21T09:15:12.824Z,12752.00
2017-08-21T09:16:13.267Z,11076.00
2017-08-21T09:18:06.499Z,21216.00
2017-08-21T09:19:06.937Z,26880.00
2017-08-21T09:20:07.390Z,79520.00
2017-08-21T09:21:07.838Z,27744.00
2017-08-21T09:23:01.072Z,70752.00
2017-08-21T09:24:01.528Z,19488.00
2017-08-21T09:25:01.984Z,63968.00
2017-08-21T09:26:02.422Z,55872.00
2017-08-21T09:27:02.868Z,11204.00
2017-08-21T09:28:03.314Z,11272.00
2017-08-21T09:29:03.763Z,14324.00
2017-08-21T09:30:04.217Z,10276.00
2017-08-21T09:31:57.457Z,7964.00
2017-08-21T09:32:57.901Z,9504.00
2017-08-21T09:33:58.345Z,13888.00
2017-08-21T09:34:58.794Z,12904.00
2017-08-21T09:36:52.030Z,10500.00
2017-08-21T09:37:52.484Z,9052.00
2017-08-21T09:38:52.928Z,7852.00
2017-08-21T09:39:53.379Z,8576.00
2017-08-21T09:40:53.823Z,9268.00
2017-08-21T09:42:47.073Z,5760.00
2017-08-21T09:44:40.305Z,4736.00
2017-08-21T09:45:40.755Z,6048.00
2017-08-21T09:46:41.197Z,7588.00
2017-08-21T09:47:41.646Z,7476.00
2017-08-21T09:48:42.084Z,8760.00
2017-08-21T09:49:42.530Z,10152.00
2017-08-21T09:50:42.971Z,28448.00
2017-08-21T09:52:36.197Z,60800.00
2017-08-21T09:53:36.646Z,102464.00
2017-08-21T09:54:37.080Z,41760.00
2017-08-21T09:55:37.532Z,43296.00
2017-08-21T09:56:37.967Z,26784.00
2017-08-21T09:57:38.413Z,24672.00
2017-08-21T09:58:38.857Z,22368.00
2017-08-21T09:59:39.351Z,23456.00
2017-08-21T10:01:33.526Z,11104.00
2017-08-21T10:03:27.761Z,6592.00
2017-08-21T10:04:28.222Z,6028.00
2017-08-21T10:05:28.659Z,5176.00
2017-08-21T10:06:29.114Z,4816.00
2017-08-21T10:08:23.212Z,7036.00
2017-08-21T10:09:22.810Z,6900.00
2017-08-21T10:10:23.270Z,5732.00
2017-08-21T10:11:23.714Z,5620.00
2017-08-21T10:12:24.156Z,6740.00
2017-08-21T10:13:24.599Z,7200.00
2017-08-21T10:14:25.076Z,10576.00
2017-08-21T10:16:36.538Z,14648.00
2017-08-21T10:19:52.285Z,8252.00
2017-08-21T10:20:52.741Z,6032.00
2017-08-21T10:22:56.726Z,4084.00
2017-08-21T10:23:46.414Z,3712.00
2017-08-21T10:24:46.863Z,3780.00
2017-08-21T10:25:47.295Z,3632.00
2017-08-21T10:27:44.505Z,3808.00
2017-08-21T10:28:44.928Z,3416.00
2017-08-21T10:29:45.371Z,3652.00
2017-08-21T10:30:45.832Z,4920.00
2017-08-21T10:34:44.387Z,98848.00
2017-08-21T10:36:08.144Z,49088.00
2017-08-21T10:39:14.720Z,37088.00
2017-08-21T10:40:47.712Z,20960.00
2017-08-21T10:42:34.127Z,8800.00
2017-08-21T10:43:34.545Z,7960.00
2017-08-21T10:44:35.008Z,7240.00
2017-08-21T10:45:35.466Z,5748.00
2017-08-21T10:46:35.903Z,4308.00
2017-08-21T10:48:29.152Z,5504.00
2017-08-21T10:49:29.608Z,4604.00
2017-08-21T10:51:22.853Z,3524.00
2017-08-21T10:52:23.303Z,3796.00
2017-08-21T10:53:23.741Z,4740.00
2017-08-21T10:54:24.185Z,7188.00
2017-08-21T10:55:24.629Z,103072.00
2017-08-21T10:56:25.070Z,107936.00
2017-08-21T10:57:25.516Z,105952.00
2017-08-21T10:58:32.652Z,100992.00
2017-08-21T11:00:30.463Z,100160.00
2017-08-21T11:02:12.486Z,80544.00
2017-08-21T11:04:05.737Z,104960.00
2017-08-21T11:05:06.197Z,59552.00
2017-08-21T11:06:11.486Z,9644.00
2017-08-21T11:07:07.120Z,7096.00
2017-08-21T11:10:33.490Z,4148.00
2017-08-21T11:12:09.733Z,3632.00
2017-08-21T11:12:49.252Z,4152.00
2017-08-21T11:17:34.434Z,3796.00
2017-08-21T11:19:35.433Z,5652.00
2017-08-21T11:21:21.926Z,8244.00
2017-08-21T11:22:22.403Z,9396.00
2017-08-21T11:34:55.822Z,48672.00
2017-08-21T11:35:16.987Z,72384.00
2017-08-21T11:36:17.441Z,93664.00
2017-08-21T11:37:20.786Z,88512.00
2017-08-21T11:39:52.475Z,79200.00
2017-08-21T11:46:13.029Z,9748.00
2017-08-21T11:52:07.924Z,9476.00
2017-08-21T11:53:15.190Z,14480.00
2017-08-21T11:54:15.694Z,14240.00
2017-08-21T11:55:09.276Z,13436.00
2017-08-21T11:58:19.111Z,13572.00
2017-08-21T11:58:59.093Z,12432.00
2017-08-21T11:59:44.739Z,12504.00
2017-08-21T12:01:38.972Z,10564.00
2017-08-21T12:02:54.226Z,10584.00
2017-08-21T12:05:48.235Z,15952.00
2017-08-21T12:06:13.442Z,18336.00
2017-08-21T12:08:06.673Z,19328.00
2017-08-21T12:09:07.118Z,19648.00
2017-08-21T12:10:22.438Z,19008.00
2017-08-21T12:11:35.929Z,19072.00
2017-08-21T12:13:01.266Z,19488.00
2017-08-21T12:14:01.696Z,19648.00
2017-08-21T12:15:02.307Z,19328.00
2017-08-21T12:17:35.701Z,18144.00
2017-08-21T12:18:36.159Z,19456.00
2017-08-21T12:19:36.596Z,15508.00
2017-08-21T12:20:37.039Z,11676.00
2017-08-21T12:21:37.482Z,7792.00
2017-08-21T12:23:30.722Z,3732.00
2017-08-21T12:24:31.181Z,3016.00
2017-08-21T12:25:31.622Z,2916.00
2017-08-21T12:27:25.841Z,4136.00
2017-08-21T12:29:59.477Z,5648.00
2017-08-21T12:32:38.749Z,7088.00
2017-08-21T12:36:07.094Z,9916.00
2017-08-21T12:36:59.789Z,12376.00
2017-08-21T12:38:00.244Z,14780.00
2017-08-21T12:39:53.475Z,18016.00
2017-08-21T12:40:53.910Z,14900.00
2017-08-21T12:41:54.349Z,12552.00
2017-08-21T12:43:47.579Z,10088.00
2017-08-21T12:44:48.034Z,9652.00
2017-08-21T12:45:48.470Z,8436.00
2017-08-21T12:49:51.547Z,10980.00
2017-08-21T12:50:47.044Z,9272.00
2017-08-21T12:51:15.684Z,6776.00
2017-08-21T12:52:16.123Z,4796.00
2017-08-21T12:53:19.557Z,3676.00
2017-08-21T12:55:17.599Z,6428.00
2017-08-21T12:56:10.239Z,7648.00
2017-08-21T12:57:31.854Z,7284.00
2017-08-21T12:59:45.210Z,5324.00
2017-08-21T13:00:45.678Z,6292.00
2017-08-21T13:02:04.003Z,10372.00
2017-08-21T13:02:46.543Z,13584.00
2017-08-21T13:03:46.991Z,12552.00
2017-08-21T13:07:16.572Z,9600.00
2017-08-21T13:09:14.200Z,9624.00
2017-08-21T13:11:38.695Z,7768.00
2017-08-21T13:12:14.700Z,7356.00
2017-08-21T13:15:07.702Z,7192.00
2017-08-21T13:15:41.903Z,7424.00
2017-08-21T13:16:42.342Z,7600.00
2017-08-21T13:17:42.780Z,7824.00
2017-08-21T13:18:43.240Z,6700.00
2017-08-21T13:19:43.663Z,8128.00
2017-08-21T13:20:50.691Z,9056.00
2017-08-21T13:22:05.710Z,9624.00
2017-08-21T13:22:45.050Z,8880.00
2017-08-21T13:23:45.458Z,9124.00
2017-08-21T13:27:26.016Z,8864.00
2017-08-21T13:28:12.238Z,7612.00
2017-08-21T13:29:15.514Z,6476.00
2017-08-21T13:31:08.652Z,7228.00
2017-08-21T13:32:59.423Z,6792.00
2017-08-21T13:33:59.579Z,5800.00
2017-08-21T13:35:00.036Z,5536.00
2017-08-21T13:36:00.496Z,7708.00
2017-08-21T13:39:38.058Z,9948.00
2017-08-21T13:40:27.242Z,10780.00
2017-08-21T13:41:27.685Z,10852.00
2017-08-21T13:43:20.902Z,10360.00
2017-08-21T13:44:21.353Z,10928.00
2017-08-21T13:45:21.821Z,11516.00
2017-08-21T13:46:25.160Z,11020.00
2017-08-21T13:47:22.676Z,10432.00
2017-08-21T13:48:23.120Z,10308.00
2017-08-21T13:49:23.601Z,10044.00
2017-08-21T13:50:24.002Z,10188.00
2017-08-21T13:51:24.449Z,12036.00
2017-08-21T13:53:35.942Z,10096.00
2017-08-21T13:54:18.149Z,10796.00
2017-08-21T13:56:11.368Z,8876.00
2017-08-21T13:57:11.816Z,8788.00
2017-08-21T13:58:12.280Z,9012.00
2017-08-21T13:59:12.717Z,8840.00
2017-08-21T14:01:05.949Z,7784.00
2017-08-21T14:02:09.412Z,7676.00
2017-08-21T14:03:06.830Z,8204.00
2017-08-21T14:04:31.183Z,6872.00
2017-08-21T14:06:14.794Z,4892.00
2017-08-21T14:07:01.030Z,5920.00
2017-08-21T14:08:01.415Z,6084.00
2017-08-21T14:11:27.892Z,5328.00
2017-08-21T14:14:03.214Z,3948.00
2017-08-21T14:15:12.701Z,3936.00
2017-08-21T14:18:29.307Z,1532.00
2017-08-21T14:20:23.491Z,1528.00
2017-08-21T14:21:23.944Z,1524.00
2017-08-21T14:22:24.385Z,1712.00
2017-08-21T14:23:24.824Z,1884.00
2017-08-21T14:25:18.064Z,2676.00
2017-08-21T14:26:18.500Z,3624.00
2017-08-21T14:28:52.077Z,6500.00
2017-08-21T14:31:03.584Z,7776.00
2017-08-21T14:33:11.292Z,7536.00
2017-08-21T14:34:03.768Z,7276.00
2017-08-21T14:35:40.817Z,6352.00
2017-08-21T14:37:05.279Z,6392.00
2017-08-21T14:38:34.527Z,7540.00
2017-08-21T14:39:34.970Z,7748.00
2017-08-21T14:40:35.419Z,6956.00
2017-08-21T14:42:28.647Z,6484.00
2017-08-21T14:46:33.725Z,6044.00
2017-08-21T14:47:16.588Z,5304.00
2017-08-21T14:47:58.711Z,4980.00
2017-08-21T14:50:50.577Z,6284.00
2017-08-21T14:51:51.031Z,6956.00
2017-08-21T14:52:30.304Z,7160.00
2017-08-21T14:55:03.864Z,7144.00
2017-08-21T14:56:04.323Z,7280.00
2017-08-21T14:57:15.609Z,7336.00
2017-08-21T15:00:38.343Z,6660.00
2017-08-21T15:01:33.496Z,6892.00
2017-08-21T15:02:55.097Z,6916.00
2017-08-21T15:03:34.376Z,6420.00
2017-08-21T15:04:35.861Z,6736.00
2017-08-21T15:07:08.359Z,5672.00
2017-08-21T15:08:08.812Z,5156.00
2017-08-21T15:09:09.245Z,4604.00
2017-08-21T15:10:09.685Z,4212.00
2017-08-21T15:11:10.134Z,4132.00
2017-08-21T15:13:03.375Z,5128.00
2017-08-21T15:14:03.831Z,5164.00
2017-08-21T15:15:19.110Z,5264.00
2017-08-21T15:16:58.452Z,4500.00
2017-08-21T15:18:51.696Z,6600.00
2017-08-21T15:19:52.143Z,6504.00
2017-08-21T15:20:52.589Z,5644.00
2017-08-21T15:22:45.816Z,5704.00
2017-08-21T15:23:46.264Z,5920.00
2017-08-21T15:25:01.561Z,6020.00
2017-08-21T15:26:39.938Z,5884.00
2017-08-21T15:27:40.392Z,5844.00
2017-08-21T15:29:33.620Z,5676.00
2017-08-21T15:30:34.062Z,5624.00
2017-08-21T15:38:22.196Z,4608.00
2017-08-21T15:40:20.575Z,4504.00
2017-08-21T15:41:35.716Z,4116.00
2017-08-21T15:42:21.372Z,3992.00
2017-08-21T15:52:44.500Z,3012.00
2017-08-21T15:57:46.312Z,1644.00
2017-08-21T15:58:46.593Z,1484.00
2017-08-21T15:59:47.042Z,1396.00
2017-08-21T16:00:50.076Z,1892.00
2017-08-21T16:01:47.952Z,2068.00
2017-08-21T16:02:48.276Z,2048.00
2017-08-21T16:04:41.579Z,1468.00
2017-08-21T16:06:39.159Z,1744.00
2017-08-21T16:07:39.716Z,2136.00
2017-08-21T16:08:39.881Z,2600.00
2017-08-21T16:09:40.351Z,3276.00
2017-08-21T16:10:40.735Z,3664.00
2017-08-21T16:12:34.188Z,3628.00
2017-08-21T16:14:10.336Z,3620.00
2017-08-21T16:15:35.334Z,3580.00
2017-08-21T16:16:28.020Z,3440.00
2017-08-21T16:17:28.483Z,3088.00
2017-08-21T16:23:08.193Z,3264.00
2017-08-21T16:24:08.674Z,3312.00
2017-08-21T16:26:42.192Z,3184.00
2017-08-21T16:28:03.803Z,3124.00
2017-08-21T16:33:24.479Z,2728.00
2017-08-21T16:34:24.964Z,3104.00
2017-08-21T16:35:40.238Z,2828.00
2017-08-21T16:37:18.694Z,2584.00
2017-08-21T16:40:45.461Z,2164.00
2017-08-21T16:43:38.279Z,1804.00
2017-08-21T16:44:23.276Z,1760.00
2017-08-21T16:45:35.773Z,1780.00
2017-08-21T16:47:14.124Z,1776.00